Terminal Aerodrome Forecast
Issued by NWS Bismarck, ND

Home | Current Version | Previous Version | Text Only | Print | Product List | Glossary On
Versions: 1 2 3 4 5 6 7 8 9 10 11 12 13 14 15
243
FTUS43 KBIS 252336
TAFISN
TAF
KISN 252336Z 2600/2624 35018G26KT P6SM BKN200
     FM260500 32007KT P6SM FEW200
     FM261700 29015G24KT P6SM SKC=

USA.gov is the U.S. government's official web portal to all federal, state and local government web resources and services.